createdAt,value
2022-08-26T00:04:25.599Z,74.90
2022-08-26T00:07:14.109Z,74.10
2022-08-26T00:09:41.843Z,71.80
2022-08-26T00:12:14.934Z,73.50
2022-08-26T00:14:42.603Z,72.90
2022-08-26T00:17:10.269Z,73.90
2022-08-26T00:19:38.006Z,72.30
2022-08-26T00:22:06.127Z,72.50
2022-08-26T00:24:33.673Z,73.20
2022-08-26T00:27:01.252Z,73.20
2022-08-26T00:29:29.192Z,73.00
2022-08-26T00:31:59.599Z,73.10
2022-08-26T00:34:27.282Z,74.30
2022-08-26T00:36:55.035Z,73.50
2022-08-26T00:39:22.996Z,73.20
2022-08-26T00:41:50.733Z,74.90
2022-08-26T00:44:20.232Z,74.40
2022-08-26T00:47:00.915Z,73.70
2022-08-26T00:49:42.013Z,72.50
2022-08-26T00:52:15.334Z,72.10
2022-08-26T00:55:01.188Z,72.40
2022-08-26T00:57:31.393Z,71.90
2022-08-26T01:00:01.408Z,72.50
2022-08-26T01:02:29.189Z,72.60
2022-08-26T01:05:03.226Z,72.50
2022-08-26T01:07:31.917Z,72.50
2022-08-26T01:10:06.465Z,72.30
2022-08-26T01:12:40.614Z,72.50
2022-08-26T01:15:12.184Z,72.20
2022-08-26T01:17:40.003Z,72.40
2022-08-26T01:20:31.412Z,72.30
2022-08-26T01:23:03.217Z,72.30
2022-08-26T01:25:34.214Z,72.30
2022-08-26T01:28:05.815Z,72.60
2022-08-26T01:30:35.462Z,72.60
2022-08-26T01:33:06.957Z,72.40
2022-08-26T01:35:34.675Z,73.20
2022-08-26T01:38:02.770Z,73.40
2022-08-26T01:40:37.235Z,74.40
2022-08-26T01:43:08.364Z,72.40
2022-08-26T01:45:40.457Z,72.90
2022-08-26T01:48:14.280Z,73.50
2022-08-26T01:50:45.049Z,73.40
2022-08-26T01:53:17.486Z,73.20
2022-08-26T01:55:49.141Z,73.90
2022-08-26T01:58:32.339Z,73.10
2022-08-26T02:01:00.233Z,72.80
2022-08-26T02:03:30.561Z,74.60
2022-08-26T02:06:05.592Z,73.40
2022-08-26T02:08:47.983Z,73.10
2022-08-26T02:11:18.282Z,72.80
2022-08-26T02:13:51.175Z,74.60
2022-08-26T02:16:22.437Z,74.10
2022-08-26T02:18:53.782Z,73.30
2022-08-26T02:21:21.935Z,73.90
2022-08-26T02:23:53.073Z,73.40
2022-08-26T02:26:27.167Z,75.90
2022-08-26T02:29:07.799Z,75.20
2022-08-26T02:31:35.407Z,74.10
2022-08-26T02:34:11.387Z,77.30
2022-08-26T02:36:39.187Z,74.30
2022-08-26T02:39:08.002Z,75.40
2022-08-26T02:41:35.936Z,75.20
2022-08-26T02:44:12.552Z,76.30
2022-08-26T02:46:40.624Z,77.20
2022-08-26T02:49:08.893Z,74.90
2022-08-26T02:51:36.420Z,75.80
2022-08-26T02:54:04.990Z,75.50
2022-08-26T02:56:35.998Z,75.10
2022-08-26T02:59:04.634Z,75.30
2022-08-26T03:01:34.715Z,76.50
2022-08-26T03:04:05.542Z,75.10
2022-08-26T03:06:33.300Z,76.50
2022-08-26T03:09:00.876Z,76.80
2022-08-26T03:11:33.019Z,77.10
2022-08-26T03:14:03.368Z,76.20
2022-08-26T03:16:33.398Z,77.60
2022-08-26T03:19:02.385Z,75.50
2022-08-26T03:21:31.087Z,76.50
2022-08-26T03:23:59.507Z,75.70
2022-08-26T03:26:28.631Z,75.50
2022-08-26T03:29:15.446Z,75.80
2022-08-26T03:31:44.137Z,75.50
2022-08-26T03:34:15.094Z,76.40
2022-08-26T03:36:43.296Z,75.40
2022-08-26T03:39:11.162Z,75.20
2022-08-26T03:41:39.077Z,75.20
2022-08-26T03:44:08.927Z,75.40
2022-08-26T03:46:38.465Z,75.60
2022-08-26T03:49:06.506Z,76.80
2022-08-26T03:51:38.893Z,75.50
2022-08-26T03:54:08.280Z,75.20
2022-08-26T03:56:37.170Z,75.20
2022-08-26T03:59:08.012Z,75.30
2022-08-26T04:01:35.791Z,75.60
2022-08-26T04:04:04.130Z,77.30
2022-08-26T04:06:35.374Z,74.70
2022-08-26T04:09:09.996Z,75.50
2022-08-26T04:11:39.378Z,75.30
2022-08-26T04:14:10.448Z,75.80
2022-08-26T04:16:40.468Z,75.70
2022-08-26T04:19:12.630Z,78.60
2022-08-26T04:21:41.289Z,77.00
2022-08-26T04:24:11.901Z,75.80
2022-08-26T04:26:43.780Z,75.30
2022-08-26T04:29:20.690Z,75.50
2022-08-26T04:31:48.297Z,75.40
2022-08-26T04:34:16.751Z,75.40
2022-08-26T04:36:44.678Z,75.30
2022-08-26T04:39:14.916Z,75.50
2022-08-26T04:41:43.726Z,76.50
2022-08-26T04:44:11.745Z,75.70
2022-08-26T04:46:43.847Z,75.80
2022-08-26T04:49:12.270Z,75.40
2022-08-26T04:51:40.641Z,76.40
2022-08-26T04:54:08.179Z,75.60
2022-08-26T04:56:39.202Z,75.60
2022-08-26T04:59:16.602Z,75.60
2022-08-26T05:01:50.740Z,75.50
2022-08-26T05:04:19.360Z,75.40
2022-08-26T05:06:49.987Z,75.20
2022-08-26T05:09:20.662Z,75.80
2022-08-26T05:11:52.029Z,75.30
2022-08-26T05:14:23.185Z,75.40
2022-08-26T05:16:51.513Z,75.40
2022-08-26T05:19:19.581Z,75.50
2022-08-26T05:21:48.869Z,75.50
2022-08-26T05:24:18.494Z,74.50
2022-08-26T05:26:48.355Z,75.60
2022-08-26T05:29:16.834Z,76.40
2022-08-26T05:31:44.634Z,75.50
2022-08-26T05:34:15.087Z,77.40
2022-08-26T05:36:45.202Z,78.90
2022-08-26T05:39:12.845Z,79.80
2022-08-26T05:41:43.026Z,77.90
2022-08-26T05:44:15.195Z,76.50
2022-08-26T05:46:44.838Z,76.00
2022-08-26T05:49:14.438Z,76.90
2022-08-26T05:51:46.411Z,75.60
2022-08-26T05:54:21.728Z,75.80
2022-08-26T05:56:54.966Z,76.20
2022-08-26T05:59:24.575Z,76.80
2022-08-26T06:01:54.743Z,80.30
2022-08-26T06:04:26.704Z,76.90
2022-08-26T06:06:55.817Z,76.40
2022-08-26T06:09:23.772Z,77.20
2022-08-26T06:11:52.375Z,77.00
2022-08-26T06:14:24.936Z,77.10
2022-08-26T06:16:52.753Z,76.90
2022-08-26T06:19:22.146Z,77.70
2022-08-26T06:21:54.688Z,77.70
2022-08-26T06:24:56.745Z,76.30
2022-08-26T06:27:34.986Z,74.80
2022-08-26T06:30:04.455Z,78.10
2022-08-26T06:32:37.049Z,74.80
2022-08-26T06:38:02.252Z,74.60
2022-08-26T06:40:32.963Z,74.60
2022-08-26T06:43:02.246Z,76.70
2022-08-26T06:45:37.289Z,74.10
2022-08-26T06:48:07.558Z,72.50
2022-08-26T06:50:40.706Z,73.30
2022-08-26T06:53:14.275Z,72.80
2022-08-26T07:00:42.360Z,72.00
2022-08-26T07:03:15.631Z,74.90
2022-08-26T07:05:44.907Z,76.40
2022-08-26T07:08:17.995Z,70.00
2022-08-26T07:10:48.076Z,72.50
2022-08-26T07:13:17.180Z,74.30
2022-08-26T07:16:02.875Z,71.70
2022-08-26T07:18:31.550Z,73.60
2022-08-26T07:21:08.410Z,71.00
2022-08-26T07:23:37.165Z,71.20
2022-08-26T07:26:10.383Z,71.40
2022-08-26T07:28:38.380Z,70.90
2022-08-26T07:31:10.684Z,70.90
2022-08-26T07:33:40.678Z,71.10
2022-08-26T07:36:10.363Z,70.90
2022-08-26T07:38:39.782Z,71.00
2022-08-26T07:41:09.098Z,70.90
2022-08-26T07:43:40.906Z,71.20
2022-08-26T07:46:09.768Z,71.40
2022-08-26T07:48:51.598Z,72.40
2022-08-26T07:51:21.578Z,71.70
2022-08-26T07:53:52.329Z,71.20
2022-08-26T07:56:24.508Z,70.70
2022-08-26T07:58:53.644Z,71.70
2022-08-26T08:01:26.967Z,71.00
2022-08-26T08:03:55.809Z,70.30
2022-08-26T08:06:27.116Z,70.80
2022-08-26T08:08:55.681Z,70.40
2022-08-26T08:11:27.754Z,70.40
2022-08-26T08:13:56.852Z,70.50
2022-08-26T08:16:32.361Z,71.00
2022-08-26T08:22:19.921Z,69.40
2022-08-26T08:24:54.051Z,71.10
2022-08-26T08:27:24.473Z,74.00
2022-08-26T08:29:59.741Z,71.70
2022-08-26T08:32:29.788Z,70.20
2022-08-26T08:34:58.714Z,68.80
2022-08-26T08:37:27.063Z,70.80
2022-08-26T08:39:54.758Z,71.40
2022-08-26T08:42:56.613Z,72.10
2022-08-26T08:45:42.578Z,68.40
2022-08-26T08:48:27.309Z,69.10
2022-08-26T08:51:29.187Z,69.20
2022-08-26T08:54:05.810Z,69.70
2022-08-26T08:57:04.456Z,68.80
2022-08-26T08:59:35.670Z,68.10
2022-08-26T09:02:22.240Z,68.30
2022-08-26T09:04:59.030Z,69.30
2022-08-26T09:07:40.208Z,69.30
2022-08-26T09:10:23.414Z,68.60
2022-08-26T09:12:52.787Z,70.40
2022-08-26T09:15:25.417Z,71.00
2022-08-26T09:18:20.954Z,67.80
2022-08-26T09:20:57.561Z,67.00
2022-08-26T09:23:27.795Z,68.30
2022-08-26T09:26:19.243Z,70.70
2022-08-26T09:32:33.533Z,66.50
2022-08-26T09:42:51.337Z,68.70
2022-08-26T09:48:37.284Z,66.90
2022-08-26T09:55:03.563Z,66.70
2022-08-26T09:57:34.409Z,69.10
2022-08-26T10:00:30.137Z,66.80
2022-08-26T10:03:08.523Z,67.70
2022-08-26T10:05:44.490Z,68.30
2022-08-26T10:08:21.304Z,70.90
2022-08-26T10:10:55.569Z,70.90
2022-08-26T10:13:29.479Z,67.70
2022-08-26T10:16:06.330Z,68.30
2022-08-26T10:18:46.021Z,67.60
2022-08-26T10:21:28.044Z,67.50
2022-08-26T10:23:59.451Z,65.50
2022-08-26T10:26:37.360Z,66.40
2022-08-26T10:29:34.336Z,65.70
2022-08-26T10:32:07.239Z,65.80
2022-08-26T10:34:34.848Z,65.50
2022-08-26T10:37:16.712Z,67.90
2022-08-26T10:40:08.207Z,65.50
2022-08-26T10:42:43.086Z,65.00
2022-08-26T10:45:19.980Z,65.30
2022-08-26T10:48:06.198Z,64.80
2022-08-26T10:50:41.567Z,65.50
2022-08-26T10:53:32.707Z,64.90
2022-08-26T10:56:39.708Z,63.10
2022-08-26T10:59:31.163Z,64.20
2022-08-26T11:02:12.783Z,63.80
2022-08-26T11:04:57.928Z,63.50
2022-08-26T11:07:36.312Z,66.50
2022-08-26T11:10:23.056Z,63.80
2022-08-26T11:13:03.860Z,64.90
2022-08-26T11:15:31.972Z,63.00
2022-08-26T11:18:32.266Z,63.30
2022-08-26T11:21:00.173Z,62.50
2022-08-26T11:23:28.711Z,64.10
2022-08-26T11:25:56.320Z,63.90
2022-08-26T11:28:36.786Z,63.40
2022-08-26T11:31:10.275Z,61.40
2022-08-26T11:33:47.857Z,61.00
2022-08-26T11:36:54.689Z,60.80
2022-08-26T11:42:41.027Z,60.30
2022-08-26T11:48:37.133Z,60.30
2022-08-26T11:51:11.725Z,60.40
2022-08-26T11:53:44.967Z,60.60
2022-08-26T11:56:24.616Z,60.90
2022-08-26T11:58:57.382Z,61.30
2022-08-26T12:01:35.852Z,61.30
2022-08-26T12:04:06.702Z,61.10
2022-08-26T12:06:47.703Z,61.30
2022-08-26T12:09:29.285Z,61.50
2022-08-26T12:12:18.353Z,61.50
2022-08-26T12:14:46.796Z,61.80
2022-08-26T12:17:28.608Z,62.00
2022-08-26T12:19:56.397Z,61.80
2022-08-26T12:22:41.098Z,62.50
2022-08-26T12:25:38.985Z,60.90
2022-08-26T12:28:07.482Z,62.30
2022-08-26T12:30:41.237Z,63.60
2022-08-26T12:36:01.528Z,61.00
2022-08-26T12:38:42.053Z,61.10
2022-08-26T12:41:12.135Z,61.70
2022-08-26T12:43:46.761Z,63.70
2022-08-26T12:46:29.455Z,62.40
2022-08-26T12:49:01.338Z,60.70
2022-08-26T12:51:33.602Z,62.90
2022-08-26T12:54:06.964Z,61.70
2022-08-26T12:56:41.071Z,63.00
2022-08-26T12:59:27.179Z,60.70
2022-08-26T13:01:55.057Z,59.60
2022-08-26T13:04:33.876Z,61.20
2022-08-26T13:07:22.045Z,60.40
2022-08-26T13:09:51.601Z,59.50
2022-08-26T13:12:32.403Z,60.60
2022-08-26T13:15:01.445Z,60.80
2022-08-26T13:17:30.453Z,60.80
2022-08-26T13:20:04.080Z,61.00
2022-08-26T13:22:32.115Z,64.30
2022-08-26T13:25:07.397Z,61.90
2022-08-26T13:27:36.397Z,63.70
2022-08-26T13:30:05.779Z,60.90
2022-08-26T13:32:35.119Z,63.40
2022-08-26T13:35:14.780Z,62.20
2022-08-26T13:37:43.846Z,63.00
2022-08-26T13:40:13.254Z,63.20
2022-08-26T13:42:49.490Z,62.60
2022-08-26T13:45:20.804Z,63.70
2022-08-26T13:47:52.256Z,62.40
2022-08-26T13:50:19.984Z,64.70
2022-08-26T13:52:53.927Z,63.70
2022-08-26T13:55:24.803Z,63.70
2022-08-26T13:57:53.673Z,64.30
2022-08-26T14:00:22.231Z,64.40
2022-08-26T14:02:50.148Z,64.00
2022-08-26T14:05:23.241Z,63.20
2022-08-26T14:07:51.291Z,65.50
2022-08-26T14:10:19.576Z,65.30
2022-08-26T14:12:51.800Z,63.40
2022-08-26T14:15:24.204Z,62.80
2022-08-26T14:17:58.123Z,62.80
2022-08-26T14:20:29.647Z,62.90
2022-08-26T14:23:13.007Z,62.10
2022-08-26T14:25:41.377Z,61.90
2022-08-26T14:28:11.588Z,63.60
2022-08-26T14:30:43.759Z,63.20
2022-08-26T14:33:13.702Z,61.40
2022-08-26T14:35:49.924Z,60.40
2022-08-26T14:38:18.700Z,62.80
2022-08-26T14:40:48.717Z,60.60
2022-08-26T14:43:17.750Z,63.40
2022-08-26T14:45:49.863Z,63.70
2022-08-26T14:48:20.676Z,59.90
2022-08-26T14:50:48.802Z,63.90
2022-08-26T14:53:35.291Z,62.90
2022-08-26T14:56:11.715Z,61.30
2022-08-26T14:58:41.556Z,62.50
2022-08-26T15:01:09.302Z,62.60
2022-08-26T15:03:45.969Z,62.60
2022-08-26T15:06:22.062Z,63.30
2022-08-26T15:08:53.708Z,60.90
2022-08-26T15:11:23.756Z,62.40
2022-08-26T15:14:05.641Z,63.60
2022-08-26T15:16:39.411Z,61.30
2022-08-26T15:19:09.609Z,60.20
2022-08-26T15:21:45.945Z,61.50
2022-08-26T15:24:17.815Z,62.40
2022-08-26T15:26:51.131Z,60.40
2022-08-26T15:29:24.195Z,59.40
2022-08-26T15:32:01.409Z,60.40
2022-08-26T15:34:37.820Z,60.60
2022-08-26T15:37:10.005Z,61.50
2022-08-26T15:39:39.558Z,60.00
2022-08-26T15:42:22.569Z,61.80
2022-08-26T15:44:53.079Z,62.20
2022-08-26T15:47:22.741Z,62.10
2022-08-26T15:49:52.728Z,62.90
2022-08-26T15:52:29.268Z,61.70
2022-08-26T15:54:57.205Z,60.00
2022-08-26T15:57:29.583Z,60.80
2022-08-26T16:00:03.823Z,59.40
2022-08-26T16:02:41.201Z,60.60
2022-08-26T16:05:13.792Z,62.00
2022-08-26T16:07:41.397Z,60.10
2022-08-26T16:10:12.439Z,61.70
2022-08-26T16:12:40.568Z,60.80
2022-08-26T16:15:09.393Z,61.00
2022-08-26T16:17:37.641Z,61.00
2022-08-26T16:20:06.030Z,60.80
2022-08-26T16:22:43.215Z,60.20
2022-08-26T16:25:11.518Z,60.30
2022-08-26T16:27:39.128Z,63.20
2022-08-26T16:30:08.008Z,61.70
2022-08-26T16:32:35.737Z,60.60
2022-08-26T16:35:03.653Z,61.30
2022-08-26T16:37:33.716Z,60.30
2022-08-26T16:40:04.957Z,58.20
2022-08-26T16:42:35.692Z,59.50
2022-08-26T16:45:07.409Z,59.30
2022-08-26T16:47:36.357Z,58.30
2022-08-26T16:50:14.145Z,58.90
2022-08-26T16:52:44.533Z,57.40
2022-08-26T16:55:16.489Z,62.00
2022-08-26T16:57:45.240Z,59.10
2022-08-26T17:00:28.002Z,57.50
2022-08-26T17:02:57.271Z,57.40
2022-08-26T17:05:28.360Z,58.50
2022-08-26T17:07:58.300Z,59.60
2022-08-26T17:10:27.887Z,58.00
2022-08-26T17:12:56.189Z,58.20
2022-08-26T17:15:23.991Z,58.50
2022-08-26T17:17:52.621Z,59.40
2022-08-26T17:20:24.128Z,59.20
2022-08-26T17:22:54.450Z,59.00
2022-08-26T17:25:28.682Z,58.80
2022-08-26T17:30:25.908Z,60.60
2022-08-26T17:32:55.135Z,58.80
2022-08-26T17:35:23.187Z,60.20
2022-08-26T17:37:51.473Z,59.90
2022-08-26T17:40:22.199Z,59.20
2022-08-26T17:42:51.114Z,60.50
2022-08-26T17:45:22.378Z,59.80
2022-08-26T17:47:50.187Z,61.20
2022-08-26T17:50:19.159Z,63.00
2022-08-26T17:52:46.900Z,60.80
2022-08-26T17:55:16.728Z,60.70
2022-08-26T17:57:44.641Z,59.10
2022-08-26T18:00:22.925Z,60.00
2022-08-26T18:02:50.417Z,59.10
2022-08-26T18:05:20.960Z,59.10
2022-08-26T18:07:49.030Z,58.80
2022-08-26T18:10:18.262Z,60.00
2022-08-26T18:12:46.441Z,58.80
2022-08-26T18:15:15.740Z,59.30
2022-08-26T18:17:43.955Z,59.40
2022-08-26T18:20:19.580Z,59.50
2022-08-26T18:22:49.394Z,59.70
2022-08-26T18:25:20.308Z,59.60
2022-08-26T18:27:48.528Z,59.50
2022-08-26T18:30:20.917Z,61.70
2022-08-26T18:32:51.947Z,60.30
2022-08-26T18:35:23.465Z,61.50
2022-08-26T18:37:51.169Z,62.00
2022-08-26T18:40:21.098Z,61.70
2022-08-26T18:42:54.034Z,61.70
2022-08-26T18:45:22.739Z,62.30
2022-08-26T18:47:51.058Z,61.10
2022-08-26T18:50:19.625Z,62.50
2022-08-26T18:52:49.465Z,62.00
2022-08-26T18:55:17.611Z,61.10
2022-08-26T18:57:48.526Z,65.20
2022-08-26T19:00:17.589Z,60.40
2022-08-26T19:02:52.042Z,61.50
2022-08-26T19:05:28.343Z,63.40
2022-08-26T19:08:44.658Z,65.60
2022-08-26T19:11:09.347Z,64.50
2022-08-26T19:13:46.259Z,64.50
2022-08-26T19:16:30.465Z,60.30
2022-08-26T19:19:00.699Z,61.90
2022-08-26T19:21:29.847Z,60.70
2022-08-26T19:23:59.105Z,60.70
2022-08-26T19:26:28.563Z,62.40
2022-08-26T19:28:59.201Z,62.30
2022-08-26T19:31:29.751Z,61.80
2022-08-26T19:33:58.204Z,62.40
2022-08-26T19:39:21.009Z,63.10
2022-08-26T19:41:50.112Z,62.10
2022-08-26T19:44:40.874Z,63.40
2022-08-26T19:47:11.044Z,61.40
2022-08-26T19:49:38.745Z,62.30
2022-08-26T19:52:12.213Z,63.80
2022-08-26T19:54:40.704Z,62.00
2022-08-26T19:57:10.596Z,63.30
2022-08-26T19:59:40.210Z,62.80
2022-08-26T20:02:11.022Z,62.80
2022-08-26T20:04:39.675Z,61.70
2022-08-26T20:07:08.102Z,62.70
2022-08-26T20:09:36.843Z,62.50
2022-08-26T20:12:05.978Z,60.80
2022-08-26T20:14:35.175Z,61.80
2022-08-26T20:17:05.346Z,62.60
2022-08-26T20:19:59.342Z,62.60
2022-08-26T20:22:26.858Z,62.90
2022-08-26T20:24:54.549Z,64.10
2022-08-26T20:27:27.548Z,63.70
2022-08-26T20:30:07.797Z,66.10
2022-08-26T20:32:35.791Z,63.70
2022-08-26T20:35:04.942Z,67.10
2022-08-26T20:37:38.698Z,66.20
2022-08-26T20:40:09.135Z,62.90
2022-08-26T20:42:40.559Z,65.50
2022-08-26T20:45:12.625Z,68.00
2022-08-26T20:47:44.093Z,65.90
2022-08-26T20:50:14.377Z,66.30
2022-08-26T20:52:47.179Z,68.10
2022-08-26T20:55:17.665Z,65.60
2022-08-26T20:57:45.352Z,65.20
2022-08-26T21:00:16.211Z,67.50
2022-08-26T21:02:47.679Z,68.00
2022-08-26T21:05:18.785Z,69.30
2022-08-26T21:07:48.447Z,65.10
2022-08-26T21:10:17.439Z,70.20
2022-08-26T21:12:48.446Z,68.90
2022-08-26T21:15:17.208Z,67.60
2022-08-26T21:17:45.407Z,68.40
2022-08-26T21:20:20.851Z,70.20
2022-08-26T21:22:50.646Z,67.50
2022-08-26T21:25:18.859Z,70.40
2022-08-26T21:27:49.738Z,65.50
2022-08-26T21:30:19.095Z,71.00
2022-08-26T21:32:47.064Z,67.50
2022-08-26T21:35:17.043Z,69.30
2022-08-26T21:37:44.881Z,71.50
2022-08-26T21:40:23.137Z,70.50
2022-08-26T21:42:52.468Z,66.50
2022-08-26T21:45:22.748Z,69.00
2022-08-26T21:47:52.870Z,70.10
2022-08-26T21:50:20.771Z,71.50
2022-08-26T21:52:48.530Z,69.30
2022-08-26T21:55:17.195Z,71.50
2022-08-26T21:57:44.806Z,67.90
2022-08-26T22:00:15.626Z,68.90
2022-08-26T22:02:43.319Z,66.60
2022-08-26T22:05:11.306Z,69.40
2022-08-26T22:07:38.973Z,68.70
2022-08-26T22:10:07.230Z,67.50
2022-08-26T22:12:34.950Z,67.10
2022-08-26T22:15:05.788Z,70.30
2022-08-26T22:17:34.218Z,70.20
2022-08-26T22:20:02.149Z,68.90
2022-08-26T22:22:31.399Z,69.90
2022-08-26T22:24:59.957Z,70.30
2022-08-26T22:27:27.531Z,68.90
2022-08-26T22:29:55.095Z,69.70
2022-08-26T22:32:23.997Z,69.50
2022-08-26T22:34:52.924Z,71.80
2022-08-26T22:37:23.141Z,68.00
2022-08-26T22:39:50.935Z,72.00
2022-08-26T22:42:18.594Z,71.00
2022-08-26T22:44:46.115Z,71.20
2022-08-26T22:47:13.793Z,70.70
2022-08-26T22:49:41.533Z,73.00
2022-08-26T22:52:11.976Z,71.70
2022-08-26T22:54:39.706Z,70.60
2022-08-26T22:57:07.290Z,70.80
2022-08-26T22:59:37.078Z,71.40
2022-08-26T23:02:04.692Z,69.10
2022-08-26T23:04:35.705Z,71.30
2022-08-26T23:07:03.537Z,70.10
2022-08-26T23:09:32.547Z,70.30
2022-08-26T23:12:00.337Z,70.50
2022-08-26T23:14:27.896Z,70.70
2022-08-26T23:16:55.472Z,71.50
2022-08-26T23:19:23.699Z,71.50
2022-08-26T23:21:51.676Z,72.90
2022-08-26T23:24:19.726Z,70.40
2022-08-26T23:26:47.408Z,72.30
2022-08-26T23:29:16.029Z,70.80
2022-08-26T23:31:43.961Z,69.70
2022-08-26T23:34:30.577Z,71.90
2022-08-26T23:36:59.027Z,69.00
2022-08-26T23:39:27.794Z,68.40
2022-08-26T23:41:58.625Z,69.60
2022-08-26T23:44:26.667Z,72.00
2022-08-26T23:46:58.935Z,71.60
2022-08-26T23:49:27.412Z,70.40
2022-08-26T23:52:13.480Z,72.90
2022-08-26T23:54:41.275Z,70.80
2022-08-26T23:57:09.691Z,71.00
2022-08-26T23:59:38.697Z,68.90
